createdAt,value
2018-12-31T15:36:21.376Z,21.40
2018-12-31T15:39:09.767Z,19.82
2018-12-31T15:41:57.599Z,20.25
2018-12-31T15:44:45.331Z,19.32
2018-12-31T15:47:32.982Z,17.27
2018-12-31T15:50:20.730Z,16.23
2018-12-31T15:53:08.271Z,17.10
2018-12-31T15:55:58.669Z,15.70
2018-12-31T15:58:46.261Z,15.40
2018-12-31T16:01:34.248Z,16.83
2018-12-31T16:04:21.825Z,17.52
2018-12-31T16:07:09.702Z,16.95
2018-12-31T16:09:57.570Z,17.57
2018-12-31T16:12:44.724Z,17.25
2018-12-31T16:15:36.358Z,18.00
2018-12-31T16:18:24.938Z,16.77
2018-12-31T16:21:15.288Z,15.65
2018-12-31T16:24:06.286Z,16.97
2018-12-31T16:26:54.044Z,18.92
2018-12-31T16:29:41.801Z,17.13
2018-12-31T16:32:29.433Z,18.87
2018-12-31T16:35:16.619Z,18.62
2018-12-31T16:38:04.684Z,20.62
2018-12-31T16:40:55.009Z,24.70
2018-12-31T16:43:44.082Z,21.70
2018-12-31T16:46:32.265Z,20.20
2018-12-31T16:49:33.837Z,19.60
2018-12-31T16:52:22.045Z,18.98
2018-12-31T16:55:09.443Z,18.70
2018-12-31T16:57:56.923Z,19.42
2018-12-31T17:00:45.056Z,20.68
2018-12-31T17:03:33.832Z,21.95
2018-12-31T17:06:22.269Z,22.95
2018-12-31T17:09:09.414Z,24.63
2018-12-31T17:11:57.253Z,21.57
2018-12-31T17:14:45.113Z,21.93
2018-12-31T17:17:32.573Z,23.05
2018-12-31T17:20:20.100Z,23.87
2018-12-31T17:23:07.751Z,22.87
2018-12-31T17:25:55.491Z,21.82
2018-12-31T17:28:42.632Z,23.00
2018-12-31T17:31:29.899Z,21.50
2018-12-31T17:34:17.179Z,19.40
2018-12-31T17:37:04.634Z,23.15
2018-12-31T17:39:52.380Z,23.42
2018-12-31T17:42:40.288Z,21.37
2018-12-31T17:45:27.480Z,23.12
2018-12-31T17:48:15.237Z,23.77
2018-12-31T17:51:02.988Z,23.12
2018-12-31T17:53:51.611Z,25.25
2018-12-31T17:56:38.894Z,30.82
2018-12-31T17:59:26.585Z,27.13
2018-12-31T18:02:14.800Z,29.05
2018-12-31T18:05:03.024Z,24.37
2018-12-31T18:07:50.449Z,23.38
2018-12-31T18:10:38.300Z,53.05
2018-12-31T18:13:25.832Z,24.67
2018-12-31T18:16:14.054Z,26.05
2018-12-31T18:19:02.047Z,23.60
2018-12-31T18:21:50.326Z,23.67
2018-12-31T18:24:40.209Z,24.40
2018-12-31T18:27:27.808Z,23.35
2018-12-31T18:30:15.101Z,24.10
2018-12-31T18:33:02.502Z,24.00
2018-12-31T18:35:50.062Z,25.72
2018-12-31T18:38:37.584Z,26.12
2018-12-31T18:41:27.279Z,30.62
2018-12-31T18:44:15.123Z,26.37
2018-12-31T18:47:09.195Z,27.52
2018-12-31T18:49:59.577Z,24.92
2018-12-31T18:52:47.099Z,24.00
2018-12-31T18:55:34.541Z,26.20
2018-12-31T18:58:22.279Z,27.10
2018-12-31T19:01:09.721Z,27.60
2018-12-31T19:03:56.900Z,26.97
2018-12-31T19:06:44.856Z,28.52
2018-12-31T19:09:32.405Z,52.58
2018-12-31T19:12:19.927Z,32.48
2018-12-31T19:15:07.980Z,31.37
2018-12-31T19:17:55.546Z,28.47
2018-12-31T19:20:43.168Z,27.40
2018-12-31T19:23:30.995Z,24.98
2018-12-31T19:26:18.705Z,28.50
2018-12-31T19:29:06.729Z,23.60
2018-12-31T19:31:53.939Z,23.65
2018-12-31T19:34:41.569Z,21.62
2018-12-31T19:37:29.966Z,24.10
2018-12-31T19:40:17.333Z,22.65
2018-12-31T19:43:04.661Z,32.03
2018-12-31T19:45:53.867Z,22.32
2018-12-31T19:48:42.755Z,22.37
2018-12-31T19:51:30.712Z,21.60
2018-12-31T19:54:18.541Z,20.17
2018-12-31T19:57:06.185Z,20.68
2018-12-31T19:59:54.499Z,21.45
2018-12-31T20:02:44.516Z,22.05
2018-12-31T20:05:31.943Z,21.77
2018-12-31T20:08:21.208Z,19.92
2018-12-31T20:11:08.855Z,20.90
2018-12-31T20:13:56.697Z,22.00
2018-12-31T20:16:45.639Z,22.00
2018-12-31T20:19:35.221Z,23.73
2018-12-31T20:22:22.632Z,24.27
2018-12-31T20:25:11.383Z,21.40
2018-12-31T20:27:59.279Z,22.70
2018-12-31T20:30:47.162Z,22.40
2018-12-31T20:33:34.477Z,19.87
2018-12-31T20:36:22.197Z,23.35
2018-12-31T20:39:09.672Z,25.03
2018-12-31T20:41:57.060Z,30.27
2018-12-31T20:44:45.692Z,23.07
2018-12-31T20:47:33.573Z,19.30
2018-12-31T20:50:21.553Z,19.83
2018-12-31T20:53:08.688Z,18.97
2018-12-31T20:55:56.554Z,17.75
2018-12-31T20:58:44.232Z,19.12
2018-12-31T21:01:32.297Z,17.30
2018-12-31T21:04:20.957Z,17.27
2018-12-31T21:07:08.380Z,19.05
2018-12-31T21:09:56.020Z,17.52
2018-12-31T21:12:43.515Z,18.07
2018-12-31T21:15:30.887Z,17.75
2018-12-31T21:18:19.599Z,19.40
2018-12-31T21:21:07.634Z,20.85
2018-12-31T21:23:55.280Z,22.02
2018-12-31T21:26:42.783Z,20.85
2018-12-31T21:29:30.091Z,19.92
2018-12-31T21:32:17.724Z,20.37
2018-12-31T21:35:05.417Z,22.07
2018-12-31T21:37:52.974Z,22.50
2018-12-31T21:40:42.156Z,23.87
2018-12-31T21:43:29.627Z,22.65
2018-12-31T21:46:18.965Z,21.77
2018-12-31T21:49:06.423Z,22.10
2018-12-31T21:51:53.863Z,23.30
2018-12-31T21:54:41.545Z,24.27
2018-12-31T21:57:29.072Z,23.15
2018-12-31T22:00:16.653Z,22.62
2018-12-31T22:03:04.272Z,26.12
2018-12-31T22:05:51.763Z,23.70
2018-12-31T22:08:39.934Z,25.65
2018-12-31T22:11:27.459Z,23.25
2018-12-31T22:14:17.313Z,24.40
2018-12-31T22:17:14.982Z,23.60
2018-12-31T22:20:03.674Z,26.17
2018-12-31T22:22:51.687Z,25.60
2018-12-31T22:25:39.542Z,28.75
2018-12-31T22:28:27.263Z,27.45
2018-12-31T22:31:15.204Z,28.85
2018-12-31T22:34:03.013Z,27.77
2018-12-31T22:36:50.410Z,24.47
2018-12-31T22:39:37.780Z,23.77
2018-12-31T22:42:25.120Z,26.73
2018-12-31T22:45:12.886Z,27.10
2018-12-31T22:48:01.592Z,25.20
2018-12-31T22:50:49.326Z,22.55
2018-12-31T22:53:37.019Z,24.00
2018-12-31T22:56:24.692Z,20.70
2018-12-31T22:59:13.432Z,23.83
2018-12-31T23:02:01.459Z,48.68
2018-12-31T23:04:49.276Z,79.60
2018-12-31T23:07:43.423Z,188.62
2018-12-31T23:10:34.380Z,238.43
2018-12-31T23:13:24.813Z,275.98
2018-12-31T23:16:16.575Z,344.90
2018-12-31T23:19:05.592Z,201.27
2018-12-31T23:21:53.498Z,83.25
2018-12-31T23:24:41.423Z,112.62
2018-12-31T23:27:28.739Z,99.10
2018-12-31T23:30:16.412Z,73.28
2018-12-31T23:33:03.870Z,45.43
2018-12-31T23:35:51.650Z,66.65
2018-12-31T23:38:38.937Z,80.77
2018-12-31T23:41:29.428Z,57.88
2018-12-31T23:44:16.803Z,40.60
2018-12-31T23:47:04.498Z,42.75
2018-12-31T23:49:54.950Z,52.08
2018-12-31T23:52:42.624Z,36.98
2018-12-31T23:55:30.462Z,42.13
2018-12-31T23:58:17.859Z,37.17
